createdAt,value
2023-01-02T00:07:40.362Z,0.42
2023-01-02T00:17:40.378Z,0.44
2023-01-02T00:27:40.382Z,0.35
2023-01-02T00:37:40.432Z,0.3
2023-01-02T00:47:40.413Z,0.36
2023-01-02T00:57:40.418Z,0.38
2023-01-02T01:07:40.404Z,0.23
2023-01-02T01:17:40.420Z,0.34
2023-01-02T01:27:40.426Z,0.32
2023-01-02T01:37:40.441Z,0.49
2023-01-02T01:47:40.803Z,0.63
2023-01-02T01:57:40.426Z,0.56
2023-01-02T02:07:40.430Z,0.39
2023-01-02T02:17:40.545Z,0.81
2023-01-02T02:27:40.478Z,0.83
2023-01-02T02:37:40.574Z,0.46
2023-01-02T02:47:40.435Z,0.32
2023-01-02T02:57:40.501Z,0.4
2023-01-02T03:07:40.480Z,0.46
2023-01-02T03:17:40.515Z,0.35
2023-01-02T03:27:40.499Z,0.25
2023-01-02T03:37:40.585Z,0.23
2023-01-02T03:47:40.491Z,0.25
2023-01-02T03:57:40.525Z,0.23
2023-01-02T04:07:40.521Z,0.17
2023-01-02T04:17:40.533Z,0.29
2023-01-02T04:27:40.527Z,0.43
2023-01-02T04:37:40.549Z,0.43
2023-01-02T04:47:40.612Z,0.83
2023-01-02T04:57:40.546Z,0.92
2023-01-02T05:07:40.547Z,0.83
2023-01-02T05:17:40.589Z,0.68
2023-01-02T05:27:40.554Z,0.59
2023-01-02T05:37:40.583Z,0.39
2023-01-02T05:47:40.578Z,0.32
2023-01-02T05:57:40.587Z,0.26
2023-01-02T06:07:40.564Z,0.18
2023-01-02T06:17:40.617Z,0.09
2023-01-02T06:27:40.606Z,0.15
2023-01-02T06:37:40.596Z,0.1
2023-01-02T06:47:40.577Z,0.08
2023-01-02T06:57:40.640Z,0.14
2023-01-02T07:07:40.631Z,0.18
2023-01-02T07:17:40.614Z,0.21
2023-01-02T07:27:40.648Z,0.27
2023-01-02T07:37:40.626Z,0.34
2023-01-02T07:47:40.621Z,0.48
2023-01-02T07:57:40.667Z,0.74
2023-01-02T08:07:44.756Z,1.31
2023-01-02T08:17:40.689Z,2.33
2023-01-02T08:27:40.686Z,2.88
2023-01-02T08:37:42.491Z,3.95
2023-01-02T08:47:40.650Z,4.89
2023-01-02T08:57:40.675Z,6.02
2023-01-02T09:07:40.638Z,7.11
2023-01-02T09:17:40.677Z,7.36
2023-01-02T09:27:40.669Z,7.64
2023-01-02T09:37:40.658Z,8.6
2023-01-02T09:47:40.629Z,9.38
2023-01-02T09:57:40.671Z,10
2023-01-02T10:07:40.616Z,10.06
2023-01-02T10:17:40.819Z,10.75
2023-01-02T10:27:40.634Z,11.4
2023-01-02T10:37:40.663Z,11.45
2023-01-02T10:47:40.601Z,12.26
2023-01-02T10:57:40.669Z,12.87
2023-01-02T11:07:40.585Z,12.75
2023-01-02T11:17:40.629Z,11.71
2023-01-02T11:27:40.623Z,11.25
2023-01-02T11:37:40.620Z,10.88
2023-01-02T11:47:40.672Z,10.83
2023-01-02T11:57:40.686Z,10.89
2023-01-02T12:07:40.586Z,10.96
2023-01-02T12:17:40.712Z,11.35
2023-01-02T12:27:40.590Z,11.87
2023-01-02T12:37:40.666Z,11.88
2023-01-02T12:47:40.585Z,12.17
2023-01-02T12:57:40.593Z,13.11
2023-01-02T13:07:40.593Z,13.26
2023-01-02T13:17:40.596Z,13.24
2023-01-02T13:27:40.589Z,13.33
2023-01-02T13:37:40.564Z,13.16
2023-01-02T13:47:40.580Z,13.04
2023-01-02T13:57:40.561Z,12.92
2023-01-02T14:07:40.514Z,12.74
2023-01-02T14:17:40.582Z,12.61
2023-01-02T14:27:40.516Z,12.53
2023-01-02T14:37:40.563Z,12.18
2023-01-02T14:47:40.496Z,12.06
2023-01-02T14:57:40.502Z,11.97
2023-01-02T15:07:40.512Z,11.9
2023-01-02T15:17:40.539Z,11.64
2023-01-02T15:27:40.496Z,11.57
2023-01-02T15:37:40.526Z,11.22
2023-01-02T15:47:40.476Z,11.02
2023-01-02T15:57:40.560Z,11.16
2023-01-02T16:07:40.480Z,11.18
2023-01-02T16:17:40.504Z,10.98
2023-01-02T16:27:40.486Z,10.89
2023-01-02T16:37:40.510Z,10.88
2023-01-02T16:47:40.467Z,10.8
2023-01-02T16:57:40.496Z,10.73
2023-01-02T17:07:40.449Z,10.82
2023-01-02T17:27:40.474Z,10.52
2023-01-02T17:37:40.457Z,10.45
2023-01-02T17:47:59.836Z,9.78
2023-01-02T17:57:40.446Z,9.1
2023-01-02T18:07:40.437Z,8.38
2023-01-02T18:17:40.433Z,7.88
2023-01-02T18:27:40.472Z,7.02
2023-01-02T18:37:40.457Z,6.75
2023-01-02T18:47:40.483Z,7.07
2023-01-02T18:57:40.444Z,6.45
2023-01-02T19:07:40.473Z,6.43
2023-01-02T19:17:40.524Z,5.98
2023-01-02T19:27:40.476Z,5.67
2023-01-02T19:37:40.635Z,5.38
2023-01-02T19:47:40.554Z,5.2
2023-01-02T19:57:40.434Z,4.91
2023-01-02T20:07:40.469Z,4.96
2023-01-02T20:17:40.467Z,4.76
2023-01-02T20:27:40.457Z,4.5
2023-01-02T20:37:40.458Z,4.32
2023-01-02T20:47:40.453Z,4.24
2023-01-02T20:57:40.438Z,4.25
2023-01-02T21:07:40.458Z,4.14
2023-01-02T21:17:40.463Z,3.99
2023-01-02T21:27:40.473Z,3.8
2023-01-02T21:37:40.464Z,3.41
2023-01-02T21:47:40.498Z,3.43
2023-01-02T21:58:12.153Z,3.37
2023-01-02T22:07:42.422Z,3.18
2023-01-02T22:17:40.453Z,2.87
2023-01-02T22:27:40.489Z,2.66
2023-01-02T22:37:40.481Z,2.51
2023-01-02T22:47:40.596Z,2.36
2023-01-02T22:57:42.522Z,2.29
2023-01-02T23:07:40.561Z,2
2023-01-02T23:17:40.487Z,1.91
2023-01-02T23:27:40.624Z,1.86
2023-01-02T23:37:40.490Z,1.74
2023-01-02T23:47:40.558Z,1.76
2023-01-02T23:57:40.491Z,1.58
